Archival Weather

Chicago O'Hare International

Chicago, Illinois (KORD)

Report from: Sunday, March 19, 2023 4:51 AM CDT
Current time: Sunday, May 19, 2024 3:32 AM CDT

Current weather – Weather history – Daily summaries
Weather forecast

Temperature-7.2°C (19.0°F)
Wind chill-12.2°C (10.0°F)
Dew point-12.8°C (9.0°F)
Winds 6 kts (3.1 m/s, 6.9 mph) West (260°)
Visibility10 mi. (16.1 km)
Clouds Sky clear
Altimeter30.22 in.Hg (1023 mB)
Relative humidity64 %
Density altitude-3,103 ft. (-946 m)
Sea-level pressure102.5 kPa (1025 mB, 30.25 in.Hg)
Remarks System requires maintenance
Automated weather observing station with precipitation discriminator
Flight conditions Visual Meteorological Conditions
Raw dataKORD 190951Z 26006KT 10SM CLR M07/M13 A3022 RMK AO2 SLP245 T10721128 $
An error has occurred. This application may no longer respond until reloaded. Reload 🗙